Time;durP1;ratioP1;P1;durP2;ratioP2;P2;SDS_P1;SDS_P2;PMS_P1;PMS_P2;Temp;Humidity;BMP_temperature;BMP_pressure;BME280_temperature;BME280_humidity;BME280_pressure;Samples;Min_cycle;Max_cycle;Signal;HPM_P1;HPM_P2
2024/01/17 00:01:14;;;;;;;15.02;7.90;;;;;;;;;;5106173;27;20510;-59
2024/01/17 00:03:40;;;;;;;11.88;8.38;;;;;;;;;;5105740;27;20060;-59
2024/01/17 00:06:07;;;;;;;14.75;8.73;;;;;;;;;;5105854;27;20506;-59
2024/01/17 00:08:33;;;;;;;17.27;9.40;;;;;;;;;;5104835;27;20067;-60
2024/01/17 00:11:00;;;;;;;18.30;10.80;;;;;;;;;;5105532;27;20059;-60
2024/01/17 00:13:26;;;;;;;18.52;9.40;;;;;;;;;;5105085;28;20059;-59
2024/01/17 00:15:53;;;;;;;13.48;7.38;;;;;;;;;;5104879;27;20514;-60
2024/01/17 00:18:19;;;;;;;15.68;9.30;;;;;;;;;;5105756;27;20063;-57
2024/01/17 00:20:46;;;;;;;17.30;9.77;;;;;;;;;;5105754;27;20052;-60
2024/01/17 00:23:12;;;;;;;15.73;9.35;;;;;;;;;;5105486;27;20063;-62
2024/01/17 00:25:39;;;;;;;14.02;9.50;;;;;;;;;;5104906;27;20416;-59
2024/01/17 00:28:05;;;;;;;14.52;10.02;;;;;;;;;;5105275;28;20079;-58
2024/01/17 00:30:31;;;;;;;13.38;9.68;;;;;;;;;;5105433;27;20079;-59
2024/01/17 00:32:58;;;;;;;14.77;10.32;;;;;;;;;;5105272;27;20055;-59
2024/01/17 00:35:25;;;;;;;21.60;10.20;;;;;;;;;;5105097;27;20130;-59
2024/01/17 00:37:52;;;;;;;20.75;10.18;;;;;;;;;;5104798;28;20555;-58
2024/01/17 00:40:18;;;;;;;17.08;10.52;;;;;;;;;;5105334;28;20098;-60
2024/01/17 00:42:44;;;;;;;16.00;9.38;;;;;;;;;;5105140;28;20147;-59
2024/01/17 00:45:13;;;;;;;15.32;9.43;;;;;;;;;;5103522;27;20059;-59
2024/01/17 00:47:39;;;;;;;19.60;10.60;;;;;;;;;;5104992;27;20056;-60
2024/01/17 00:50:06;;;;;;;17.58;10.93;;;;;;;;;;5104901;28;20056;-59
2024/01/17 00:52:32;;;;;;;15.23;9.88;;;;;;;;;;5104632;27;21080;-60
2024/01/17 00:54:59;;;;;;;20.88;10.88;;;;;;;;;;5105344;27;20059;-59
2024/01/17 00:57:25;;;;;;;24.55;10.75;;;;;;;;;;5104332;27;20055;-60
2024/01/17 00:59:52;;;;;;;15.48;10.65;;;;;;;;;;5103638;27;20071;-59
2024/01/17 01:02:18;;;;;;;16.58;10.65;;;;;;;;;;5103704;27;20573;-59
2024/01/17 01:04:45;;;;;;;17.33;10.15;;;;;;;;;;5104634;27;20503;-60
2024/01/17 01:07:11;;;;;;;22.92;10.88;;;;;;;;;;5105562;27;20825;-59
2024/01/17 01:09:38;;;;;;;18.73;11.40;;;;;;;;;;5105005;27;20052;-59
2024/01/17 01:12:04;;;;;;;12.48;9.68;;;;;;;;;;5104336;27;20170;-58
2024/01/17 01:14:31;;;;;;;17.27;9.95;;;;;;;;;;5104856;27;20136;-59
2024/01/17 01:16:57;;;;;;;23.73;11.70;;;;;;;;;;5104471;27;20048;-60
2024/01/17 01:19:24;;;;;;;14.70;9.85;;;;;;;;;;5103179;28;20206;-59
2024/01/17 01:21:50;;;;;;;18.92;11.63;;;;;;;;;;5104424;27;20063;-58
2024/01/17 01:24:16;;;;;;;18.88;10.82;;;;;;;;;;5104899;28;20052;-60
2024/01/17 01:26:43;;;;;;;20.92;11.20;;;;;;;;;;5104510;28;20050;-58
2024/01/17 01:29:10;;;;;;;21.42;11.02;;;;;;;;;;5104185;28;20055;-60
2024/01/17 01:31:37;;;;;;;16.67;10.38;;;;;;;;;;5103590;27;20052;-59
2024/01/17 01:34:03;;;;;;;17.42;10.35;;;;;;;;;;5104860;28;20056;-59
2024/01/17 01:36:30;;;;;;;16.67;8.95;;;;;;;;;;5104541;28;20502;-60
2024/01/17 01:38:56;;;;;;;14.93;10.18;;;;;;;;;;5104180;27;20055;-61
2024/01/17 01:41:23;;;;;;;17.42;10.10;;;;;;;;;;5103490;28;20575;-59
2024/01/17 01:43:49;;;;;;;19.95;10.50;;;;;;;;;;5104637;27;20056;-58
2024/01/17 01:46:26;;;;;;;18.13;10.50;;;;;;;;;;5104196;27;20594;-59
2024/01/17 01:48:53;;;;;;;17.75;10.75;;;;;;;;;;5104326;27;20133;-60
2024/01/17 01:51:20;;;;;;;18.90;11.00;;;;;;;;;;5104773;28;20124;-60
2024/01/17 01:53:52;;;;;;;18.10;10.40;;;;;;;;;;5103607;28;20558;-60
2024/01/17 01:56:21;;;;;;;15.95;10.15;;;;;;;;;;5104036;27;20442;-60
2024/01/17 01:58:48;;;;;;;18.63;10.65;;;;;;;;;;5103897;27;20162;-60
2024/01/17 02:01:15;;;;;;;19.83;10.43;;;;;;;;;;5103619;27;20149;-60
2024/01/17 02:03:43;;;;;;;18.70;10.00;;;;;;;;;;5103734;27;20500;-61
2024/01/17 02:06:12;;;;;;;19.10;10.15;;;;;;;;;;5103828;27;20075;-59
2024/01/17 02:08:38;;;;;;;17.08;9.82;;;;;;;;;;5102996;27;20056;-58
2024/01/17 02:11:06;;;;;;;20.13;11.43;;;;;;;;;;5103763;27;20052;-59
2024/01/17 02:13:35;;;;;;;18.83;10.55;;;;;;;;;;5103517;27;20051;-60
2024/01/17 02:16:01;;;;;;;17.92;10.75;;;;;;;;;;5103237;27;20052;-60
2024/01/17 02:18:28;;;;;;;14.85;9.45;;;;;;;;;;5103136;27;20082;-59
2024/01/17 02:20:54;;;;;;;19.42;10.75;;;;;;;;;;5103438;27;20052;-60
2024/01/17 02:23:24;;;;;;;17.40;9.95;;;;;;;;;;5104053;27;20450;-60
2024/01/17 02:25:51;;;;;;;23.20;11.32;;;;;;;;;;5103296;27;20458;-60
2024/01/17 02:28:18;;;;;;;17.88;11.45;;;;;;;;;;5104029;27;20097;-60
2024/01/17 02:30:44;;;;;;;16.90;9.32;;;;;;;;;;5104236;28;20150;-59
2024/01/17 02:33:12;;;;;;;22.50;10.77;;;;;;;;;;5103350;27;20142;-59
2024/01/17 02:35:39;;;;;;;19.05;10.02;;;;;;;;;;5103357;27;20104;-59
2024/01/17 02:38:06;;;;;;;18.27;10.35;;;;;;;;;;5102997;27;20506;-59
2024/01/17 02:40:32;;;;;;;20.90;10.50;;;;;;;;;;5102670;27;20651;-59
2024/01/17 02:42:58;;;;;;;16.25;10.05;;;;;;;;;;5103196;27;20080;-57
2024/01/17 02:45:25;;;;;;;16.10;10.45;;;;;;;;;;5102597;27;20048;-59
2024/01/17 02:47:51;;;;;;;17.20;10.05;;;;;;;;;;5103045;27;20060;-59
2024/01/17 02:50:18;;;;;;;20.02;10.30;;;;;;;;;;5102998;28;20076;-59
2024/01/17 02:52:44;;;;;;;14.57;9.80;;;;;;;;;;5102625;28;20056;-58
2024/01/17 02:55:11;;;;;;;18.27;10.25;;;;;;;;;;5102727;27;20056;-59
2024/01/17 02:57:38;;;;;;;20.38;11.48;;;;;;;;;;5103001;27;20118;-59
2024/01/17 03:00:09;;;;;;;21.48;9.90;;;;;;;;;;5103293;27;20051;-61
2024/01/17 03:02:35;;;;;;;18.20;10.27;;;;;;;;;;5103107;27;20565;-59
2024/01/17 03:05:03;;;;;;;20.55;9.35;;;;;;;;;;5102838;27;20055;-60
2024/01/17 03:07:30;;;;;;;17.55;10.00;;;;;;;;;;5102543;28;20060;-61
2024/01/17 03:09:56;;;;;;;14.27;9.85;;;;;;;;;;5101990;27;20823;-60
2024/01/17 03:12:23;;;;;;;18.42;10.48;;;;;;;;;;5103779;27;20129;-60
2024/01/17 03:14:50;;;;;;;17.83;9.40;;;;;;;;;;5103365;27;20086;-59
2024/01/17 03:17:16;;;;;;;19.02;9.52;;;;;;;;;;5102246;27;20422;-60
2024/01/17 03:19:44;;;;;;;16.92;10.13;;;;;;;;;;5101278;28;20463;-58
2024/01/17 03:22:10;;;;;;;16.60;9.70;;;;;;;;;;5103770;27;20064;-61
2024/01/17 03:24:37;;;;;;;16.85;9.55;;;;;;;;;;5104655;27;20048;-60
2024/01/17 03:27:03;;;;;;;20.52;9.95;;;;;;;;;;5106173;27;20063;-60
2024/01/17 03:29:30;;;;;;;18.92;11.23;;;;;;;;;;5105895;27;20109;-60
2024/01/17 03:31:56;;;;;;;16.65;10.07;;;;;;;;;;5105788;27;20048;-59
2024/01/17 03:34:23;;;;;;;16.52;9.38;;;;;;;;;;5106104;27;20062;-58
2024/01/17 03:36:49;;;;;;;15.30;8.73;;;;;;;;;;5105474;27;20060;-59
2024/01/17 03:39:16;;;;;;;14.80;8.85;;;;;;;;;;5106468;27;20526;-60
2024/01/17 03:41:43;;;;;;;18.63;9.68;;;;;;;;;;5106302;27;20063;-59
2024/01/17 03:44:09;;;;;;;14.30;8.95;;;;;;;;;;5106780;27;20059;-59
2024/01/17 03:46:35;;;;;;;14.27;9.60;;;;;;;;;;5105396;27;20063;-58
2024/01/17 03:49:02;;;;;;;16.25;9.98;;;;;;;;;;5106457;27;20052;-60
2024/01/17 03:51:29;;;;;;;15.75;10.35;;;;;;;;;;5105235;27;20064;-59
2024/01/17 03:53:56;;;;;;;15.07;8.57;;;;;;;;;;5105974;27;20051;-58
2024/01/17 03:56:23;;;;;;;12.68;9.93;;;;;;;;;;5105729;27;20502;-60
2024/01/17 03:58:49;;;;;;;13.43;8.70;;;;;;;;;;5106241;27;20044;-60
2024/01/17 04:01:15;;;;;;;22.40;9.27;;;;;;;;;;5105850;27;20048;-59
2024/01/17 04:03:43;;;;;;;14.90;9.38;;;;;;;;;;5105544;27;20464;-59
2024/01/17 04:06:10;;;;;;;16.27;9.27;;;;;;;;;;5104232;27;20063;-60
2024/01/17 04:08:37;;;;;;;14.63;9.25;;;;;;;;;;5105518;27;20056;-57
2024/01/17 04:11:04;;;;;;;13.68;9.25;;;;;;;;;;5105580;27;20052;-60
2024/01/17 04:13:30;;;;;;;13.95;8.80;;;;;;;;;;5105273;27;20559;-60
2024/01/17 04:15:57;;;;;;;16.27;9.48;;;;;;;;;;5105591;27;20056;-61
2024/01/17 04:18:23;;;;;;;14.20;9.18;;;;;;;;;;5104206;28;20117;-59
2024/01/17 04:20:50;;;;;;;9.50;7.78;;;;;;;;;;5105425;27;20086;-58
2024/01/17 04:23:18;;;;;;;14.38;8.57;;;;;;;;;;5105678;27;20083;-60
2024/01/17 04:25:44;;;;;;;15.25;8.98;;;;;;;;;;5105574;27;20051;-59
2024/01/17 04:28:12;;;;;;;14.73;8.30;;;;;;;;;;5106019;27;20155;-59
2024/01/17 04:30:38;;;;;;;15.18;8.63;;;;;;;;;;5104142;28;20505;-59
2024/01/17 04:33:07;;;;;;;13.70;10.00;;;;;;;;;;5105115;27;20055;-60
2024/01/17 04:35:34;;;;;;;17.38;9.23;;;;;;;;;;5104239;28;20056;-60
2024/01/17 04:38:01;;;;;;;14.73;9.38;;;;;;;;;;5105475;27;20063;-59
2024/01/17 04:40:27;;;;;;;14.40;8.80;;;;;;;;;;5105144;27;20052;-59
2024/01/17 04:42:54;;;;;;;17.52;8.73;;;;;;;;;;5104585;27;20983;-60
2024/01/17 04:45:20;;;;;;;14.95;8.98;;;;;;;;;;5104998;27;20164;-61
2024/01/17 04:47:47;;;;;;;15.27;8.75;;;;;;;;;;5104931;27;20048;-60
2024/01/17 04:50:15;;;;;;;18.08;8.98;;;;;;;;;;5104325;27;20566;-60
2024/01/17 04:52:42;;;;;;;14.38;8.68;;;;;;;;;;5104343;27;20180;-61
2024/01/17 04:55:09;;;;;;;16.13;8.73;;;;;;;;;;5105312;27;20060;-59
2024/01/17 04:57:35;;;;;;;14.10;8.80;;;;;;;;;;5104374;27;20561;-59
2024/01/17 05:00:03;;;;;;;12.57;8.43;;;;;;;;;;5104957;27;20080;-60
2024/01/17 05:02:30;;;;;;;14.07;9.55;;;;;;;;;;5105184;27;20056;-60
2024/01/17 05:04:56;;;;;;;12.65;8.88;;;;;;;;;;5104757;27;20510;-60
2024/01/17 05:07:23;;;;;;;14.05;7.82;;;;;;;;;;5104991;27;20106;-60
2024/01/17 05:09:49;;;;;;;11.13;8.20;;;;;;;;;;5104380;28;20615;-59
2024/01/17 05:12:15;;;;;;;15.05;8.35;;;;;;;;;;5104929;27;20109;-60
2024/01/17 05:14:42;;;;;;;14.32;8.40;;;;;;;;;;5104710;27;20056;-58
2024/01/17 05:17:08;;;;;;;11.85;8.40;;;;;;;;;;5104589;27;20075;-58
2024/01/17 05:19:35;;;;;;;16.73;8.27;;;;;;;;;;5104103;27;20051;-59
2024/01/17 05:22:02;;;;;;;13.77;8.32;;;;;;;;;;5104517;27;20584;-59
2024/01/17 05:24:28;;;;;;;15.45;8.25;;;;;;;;;;5104272;27;20048;-60
2024/01/17 05:26:58;;;;;;;14.75;8.70;;;;;;;;;;5083900;28;20076;-60
2024/01/17 05:29:24;;;;;;;11.70;7.97;;;;;;;;;;5083805;28;20044;-58
2024/01/17 05:31:51;;;;;;;10.90;7.28;;;;;;;;;;5103662;28;20505;-60
2024/01/17 05:34:17;;;;;;;18.33;9.07;;;;;;;;;;5103954;28;20056;-60
2024/01/17 05:36:44;;;;;;;15.18;9.10;;;;;;;;;;5104279;27;20052;-59
2024/01/17 05:39:12;;;;;;;13.50;7.88;;;;;;;;;;5104908;27;20133;-60
2024/01/17 05:41:38;;;;;;;12.50;7.43;;;;;;;;;;5104497;27;20083;-60
2024/01/17 05:44:05;;;;;;;16.05;9.27;;;;;;;;;;5103968;27;20429;-60
2024/01/17 05:46:32;;;;;;;11.73;7.75;;;;;;;;;;5103576;27;20088;-58
2024/01/17 05:48:59;;;;;;;13.38;7.47;;;;;;;;;;5104095;27;20446;-60
2024/01/17 05:51:26;;;;;;;12.93;7.63;;;;;;;;;;5103003;27;20055;-59
2024/01/17 05:53:52;;;;;;;15.77;7.80;;;;;;;;;;5098910;27;20059;-60
2024/01/17 05:56:19;;;;;;;14.32;8.40;;;;;;;;;;5101184;28;20502;-59
2024/01/17 05:58:45;;;;;;;12.13;8.27;;;;;;;;;;5091611;27;20144;-59
2024/01/17 06:01:11;;;;;;;14.05;7.28;;;;;;;;;;5089404;28;20509;-59
2024/01/17 06:03:38;;;;;;;13.32;7.70;;;;;;;;;;5082793;28;20521;-58
2024/01/17 06:06:04;;;;;;;13.40;8.45;;;;;;;;;;5083907;28;20059;-58
2024/01/17 06:08:31;;;;;;;11.68;7.47;;;;;;;;;;5084161;28;20061;-59
2024/01/17 06:10:57;;;;;;;10.60;7.40;;;;;;;;;;5086357;28;20513;-60
2024/01/17 06:13:24;;;;;;;10.57;7.10;;;;;;;;;;5104087;27;20048;-61
2024/01/17 06:15:50;;;;;;;10.98;7.07;;;;;;;;;;5103342;27;20236;-61
2024/01/17 06:18:16;;;;;;;14.30;8.02;;;;;;;;;;5104425;27;20099;-60
2024/01/17 06:20:43;;;;;;;11.45;7.22;;;;;;;;;;5103616;27;20059;-59
2024/01/17 06:23:10;;;;;;;14.27;7.78;;;;;;;;;;5088604;27;20172;-58
2024/01/17 06:25:36;;;;;;;12.70;7.38;;;;;;;;;;5090164;28;20507;-59
2024/01/17 06:28:03;;;;;;;12.95;8.45;;;;;;;;;;5089676;28;20545;-60
2024/01/17 06:30:29;;;;;;;16.10;8.10;;;;;;;;;;5103456;27;20676;-60
2024/01/17 06:32:56;;;;;;;13.77;9.25;;;;;;;;;;5102725;28;20093;-60
2024/01/17 06:35:22;;;;;;;11.88;7.93;;;;;;;;;;5091480;27;20540;-60
2024/01/17 06:37:49;;;;;;;11.65;7.82;;;;;;;;;;5102440;28;20139;-58
2024/01/17 06:40:15;;;;;;;12.05;8.63;;;;;;;;;;5093291;27;20244;-60
2024/01/17 06:42:42;;;;;;;11.13;8.00;;;;;;;;;;5103154;27;20063;-60
2024/01/17 06:45:10;;;;;;;12.77;7.50;;;;;;;;;;5103039;27;20506;-60
2024/01/17 06:47:37;;;;;;;14.85;8.60;;;;;;;;;;5102678;27;20387;-60
2024/01/17 06:50:04;;;;;;;9.30;7.35;;;;;;;;;;5103383;27;20048;-59
2024/01/17 06:52:30;;;;;;;15.43;8.13;;;;;;;;;;5096543;27;20067;-60
2024/01/17 06:54:57;;;;;;;11.32;7.97;;;;;;;;;;5093590;27;20140;-59
2024/01/17 06:57:23;;;;;;;14.20;8.90;;;;;;;;;;5100589;27;20542;-61
2024/01/17 06:59:50;;;;;;;15.40;8.55;;;;;;;;;;5122704;27;20540;-61
2024/01/17 07:02:16;;;;;;;14.13;8.20;;;;;;;;;;5107559;27;20052;-60
2024/01/17 07:04:44;;;;;;;13.18;8.52;;;;;;;;;;5106337;27;20063;-60
2024/01/17 07:07:10;;;;;;;13.80;8.48;;;;;;;;;;5101493;27;20056;-61
2024/01/17 07:09:37;;;;;;;13.55;9.15;;;;;;;;;;5085313;28;20056;-62
2024/01/17 07:12:05;;;;;;;10.27;7.65;;;;;;;;;;5096465;27;20498;-59
2024/01/17 07:14:31;;;;;;;13.50;8.70;;;;;;;;;;5105694;27;20058;-59
2024/01/17 07:16:58;;;;;;;11.38;7.45;;;;;;;;;;5105210;27;20071;-58
2024/01/17 07:19:24;;;;;;;10.10;7.32;;;;;;;;;;5092445;27;20052;-60
2024/01/17 07:21:51;;;;;;;17.80;8.70;;;;;;;;;;5106224;27;20067;-60
2024/01/17 07:24:18;;;;;;;14.15;7.68;;;;;;;;;;5109273;27;20047;-59
2024/01/17 07:26:45;;;;;;;11.60;7.55;;;;;;;;;;5105338;27;20565;-59
2024/01/17 07:29:11;;;;;;;11.32;7.50;;;;;;;;;;5105184;27;20048;-60
2024/01/17 07:31:38;;;;;;;12.68;8.15;;;;;;;;;;5093610;27;20062;-60
2024/01/17 07:34:05;;;;;;;13.30;7.75;;;;;;;;;;5105211;27;20502;-60
2024/01/17 07:36:32;;;;;;;15.57;8.90;;;;;;;;;;5104488;27;20058;-60
2024/01/17 07:38:58;;;;;;;11.98;7.72;;;;;;;;;;5105438;27;20052;-58
2024/01/17 07:41:24;;;;;;;9.93;7.18;;;;;;;;;;5106054;27;20608;-59
2024/01/17 07:43:51;;;;;;;14.35;7.72;;;;;;;;;;5105465;27;20290;-54
2024/01/17 07:46:17;;;;;;;13.35;7.93;;;;;;;;;;5105632;28;20437;-60
2024/01/17 07:48:44;;;;;;;14.65;8.50;;;;;;;;;;5105325;27;20159;-60
2024/01/17 07:51:11;;;;;;;13.40;8.15;;;;;;;;;;5105742;27;20056;-61
2024/01/17 07:53:38;;;;;;;15.85;7.35;;;;;;;;;;5103446;27;20056;-59
2024/01/17 07:56:05;;;;;;;15.20;8.18;;;;;;;;;;5104164;27;20048;-59
2024/01/17 07:58:31;;;;;;;13.00;7.78;;;;;;;;;;5103361;27;20125;-58
2024/01/17 08:00:59;;;;;;;11.75;7.75;;;;;;;;;;5103529;27;20052;-60
2024/01/17 08:03:25;;;;;;;14.57;8.55;;;;;;;;;;5103754;27;20139;-59
2024/01/17 08:05:56;;;;;;;11.57;7.90;;;;;;;;;;5104080;27;20066;-61
2024/01/17 08:08:25;;;;;;;12.65;8.43;;;;;;;;;;5103993;27;20512;-59
2024/01/17 08:10:52;;;;;;;13.38;8.38;;;;;;;;;;5102493;28;20461;-59
2024/01/17 08:13:18;;;;;;;22.10;9.05;;;;;;;;;;5103390;27;20441;-60
2024/01/17 08:15:45;;;;;;;11.70;8.73;;;;;;;;;;5103576;28;20056;-59
2024/01/17 08:18:13;;;;;;;13.05;8.25;;;;;;;;;;5104727;27;20084;-59
2024/01/17 08:20:40;;;;;;;12.68;8.43;;;;;;;;;;5103002;28;20478;-58
2024/01/17 08:23:06;;;;;;;12.60;8.52;;;;;;;;;;5103856;27;20426;-59
2024/01/17 08:25:33;;;;;;;16.50;7.78;;;;;;;;;;5102264;27;20113;-60
2024/01/17 08:27:59;;;;;;;12.70;7.93;;;;;;;;;;5103577;27;20148;-60
2024/01/17 08:30:26;;;;;;;15.23;8.30;;;;;;;;;;5104311;27;20048;-60
2024/01/17 08:32:53;;;;;;;13.50;9.05;;;;;;;;;;5103153;27;20603;-60
2024/01/17 08:35:20;;;;;;;13.63;7.93;;;;;;;;;;5103617;27;20076;-60
2024/01/17 08:37:47;;;;;;;14.50;8.07;;;;;;;;;;5103781;27;20052;-57
2024/01/17 08:40:13;;;;;;;16.88;8.35;;;;;;;;;;5103618;27;20083;-59
2024/01/17 08:42:43;;;;;;;13.48;7.93;;;;;;;;;;5090605;27;20167;-60
2024/01/17 08:45:10;;;;;;;13.05;7.65;;;;;;;;;;5103725;27;20090;-58
2024/01/17 08:47:38;;;;;;;12.57;7.05;;;;;;;;;;5098355;27;20597;-59
2024/01/17 08:50:04;;;;;;;13.68;7.53;;;;;;;;;;5103119;27;20102;-59
2024/01/17 08:52:31;;;;;;;15.52;8.13;;;;;;;;;;5061012;27;1073681;-60
2024/01/17 08:55:00;;;;;;;14.95;8.05;;;;;;;;;;5099082;28;20048;-60
2024/01/17 08:57:27;;;;;;;13.75;8.10;;;;;;;;;;5088276;27;20105;-60
2024/01/17 08:59:53;;;;;;;11.23;7.50;;;;;;;;;;5103972;27;20144;-59
2024/01/17 09:02:21;;;;;;;16.45;8.48;;;;;;;;;;5103482;27;20130;-58
2024/01/17 09:04:47;;;;;;;12.95;8.05;;;;;;;;;;5099793;27;20056;-60
2024/01/17 09:07:14;;;;;;;13.95;8.27;;;;;;;;;;5095888;27;20044;-57
2024/01/17 09:09:41;;;;;;;19.30;7.90;;;;;;;;;;5104416;27;20086;-59
2024/01/17 09:12:07;;;;;;;15.85;7.80;;;;;;;;;;5104104;27;20079;-59
2024/01/17 09:14:34;;;;;;;13.60;7.50;;;;;;;;;;5100395;27;20095;-58
2024/01/17 09:17:03;;;;;;;13.35;8.23;;;;;;;;;;5098441;27;20060;-58
2024/01/17 09:19:29;;;;;;;17.95;8.60;;;;;;;;;;5095903;27;20067;-58
2024/01/17 09:21:58;;;;;;;15.77;8.25;;;;;;;;;;5104209;27;20048;-59
2024/01/17 09:24:25;;;;;;;13.10;8.43;;;;;;;;;;5103658;27;20454;-59
2024/01/17 09:26:51;;;;;;;15.23;8.18;;;;;;;;;;5102798;27;20521;-58
2024/01/17 09:29:19;;;;;;;12.35;7.93;;;;;;;;;;5104582;27;20058;-59
2024/01/17 09:31:47;;;;;;;13.32;8.45;;;;;;;;;;5103910;27;20063;-60
2024/01/17 09:34:14;;;;;;;12.00;8.07;;;;;;;;;;5103302;27;20048;-60
2024/01/17 09:36:41;;;;;;;14.82;7.95;;;;;;;;;;5104075;27;20139;-58
2024/01/17 09:39:08;;;;;;;16.85;8.35;;;;;;;;;;5103292;27;20060;-58
2024/01/17 09:41:35;;;;;;;12.10;8.45;;;;;;;;;;5104217;27;20575;-59
2024/01/17 09:44:02;;;;;;;17.75;8.77;;;;;;;;;;5103767;27;20052;-59
2024/01/17 09:46:31;;;;;;;12.35;7.97;;;;;;;;;;5103706;28;20052;-60
2024/01/17 09:48:57;;;;;;;19.50;9.45;;;;;;;;;;5103410;27;20417;-59
2024/01/17 09:51:32;;;;;;;13.40;8.75;;;;;;;;;;5103550;27;20052;-59
2024/01/17 09:54:00;;;;;;;14.60;9.35;;;;;;;;;;5102737;27;20061;-59
2024/01/17 09:56:28;;;;;;;15.48;8.38;;;;;;;;;;5103109;27;20495;-59
2024/01/17 09:58:56;;;;;;;13.40;9.23;;;;;;;;;;5099928;27;20054;-59
2024/01/17 10:01:25;;;;;;;12.77;8.15;;;;;;;;;;5090609;27;20048;-59
2024/01/17 10:03:54;;;;;;;15.63;8.48;;;;;;;;;;5103720;27;20490;-57
2024/01/17 10:06:21;;;;;;;12.05;8.63;;;;;;;;;;5103203;27;20060;-58
2024/01/17 10:08:48;;;;;;;13.68;9.18;;;;;;;;;;5102873;27;20058;-58
2024/01/17 10:11:15;;;;;;;15.45;9.32;;;;;;;;;;5103317;27;20567;-59
2024/01/17 10:13:41;;;;;;;12.73;7.55;;;;;;;;;;5103600;27;20086;-58
2024/01/17 10:16:08;;;;;;;13.90;8.25;;;;;;;;;;5103189;27;20062;-60
2024/01/17 10:18:35;;;;;;;14.95;8.88;;;;;;;;;;5102536;27;20146;-57
2024/01/17 10:21:03;;;;;;;12.13;8.82;;;;;;;;;;5102862;27;20103;-61
2024/01/17 10:23:30;;;;;;;13.85;8.63;;;;;;;;;;5101582;27;20091;-61
2024/01/17 10:25:56;;;;;;;19.35;8.68;;;;;;;;;;5102615;27;20109;-60
2024/01/17 10:28:23;;;;;;;15.68;9.25;;;;;;;;;;5102832;27;20392;-61
2024/01/17 10:30:50;;;;;;;13.88;9.40;;;;;;;;;;5103058;27;20524;-59
2024/01/17 10:33:17;;;;;;;13.50;9.18;;;;;;;;;;5102591;27;20048;-59
2024/01/17 10:35:43;;;;;;;22.27;13.07;;;;;;;;;;5101988;27;20052;-61
2024/01/17 10:38:10;;;;;;;15.55;9.63;;;;;;;;;;5102267;27;20514;-60
2024/01/17 10:40:42;;;;;;;11.45;8.23;;;;;;;;;;5101774;27;20056;-59
2024/01/17 10:43:10;;;;;;;14.32;8.45;;;;;;;;;;5102455;27;20175;-59
2024/01/17 10:45:37;;;;;;;16.65;8.38;;;;;;;;;;5102445;27;20490;-59
2024/01/17 10:48:05;;;;;;;12.65;8.30;;;;;;;;;;5098195;27;20049;-60
2024/01/17 10:50:32;;;;;;;15.45;9.27;;;;;;;;;;5102294;27;20098;-59
2024/01/17 10:53:04;;;;;;;12.75;9.77;;;;;;;;;;5101731;27;20469;-60
2024/01/17 10:55:35;;;;;;;16.17;8.52;;;;;;;;;;5084497;27;20052;-61
2024/01/17 10:58:05;;;;;;;13.18;8.35;;;;;;;;;;5085129;27;20591;-59
2024/01/17 11:00:34;;;;;;;13.10;9.07;;;;;;;;;;5102551;28;20456;-58
2024/01/17 11:03:08;;;;;;;12.05;8.52;;;;;;;;;;5101083;27;20564;-60
2024/01/17 11:05:46;;;;;;;16.08;10.10;;;;;;;;;;5111738;27;20422;-58
2024/01/17 11:08:14;;;;;;;16.20;9.63;;;;;;;;;;5092547;27;20048;-58
2024/01/17 11:10:41;;;;;;;15.32;9.32;;;;;;;;;;5102870;27;20060;-60
2024/01/17 11:13:09;;;;;;;13.35;7.82;;;;;;;;;;5103752;27;20593;-58
2024/01/17 11:15:37;;;;;;;15.90;8.63;;;;;;;;;;5101328;27;20052;-59
2024/01/17 11:18:04;;;;;;;15.55;9.52;;;;;;;;;;5101629;27;20098;-61
2024/01/17 11:20:30;;;;;;;14.27;9.68;;;;;;;;;;5101951;27;20055;-59
2024/01/17 11:23:01;;;;;;;12.75;8.80;;;;;;;;;;5103150;27;20048;-60
2024/01/17 11:25:31;;;;;;;16.75;8.77;;;;;;;;;;5123359;27;20138;-59
2024/01/17 11:28:07;;;;;;;17.10;9.05;;;;;;;;;;5122780;27;20048;-60
2024/01/17 11:30:33;;;;;;;;;;;;;;;;;;5123158;27;20052;-58
2024/01/17 11:33:03;;;;;;;15.95;7.78;;;;;;;;;;5121814;27;44533;-58
2024/01/17 11:35:49;;;;;;;16.08;9.15;;;;;;;;;;5101335;27;20101;-59
2024/01/17 11:38:22;;;;;;;14.05;8.68;;;;;;;;;;5090672;27;20055;-58
2024/01/17 11:40:53;;;;;;;15.25;9.15;;;;;;;;;;5087848;28;20053;-59
2024/01/17 11:43:19;;;;;;;12.68;9.38;;;;;;;;;;5102766;27;20105;-58
2024/01/17 11:45:53;;;;;;;12.38;8.00;;;;;;;;;;5104219;27;20052;-60
2024/01/17 11:48:26;;;;;;;13.85;8.23;;;;;;;;;;5088341;27;20441;-59
2024/01/17 11:51:16;;;;;;;13.27;8.52;;;;;;;;;;5104520;27;20139;-60
2024/01/17 11:53:46;;;;;;;15.95;9.23;;;;;;;;;;5105033;27;20528;-59
2024/01/17 11:56:13;;;;;;;15.43;8.85;;;;;;;;;;5105458;27;20127;-60
2024/01/17 11:58:43;;;;;;;13.65;9.00;;;;;;;;;;5096103;27;20573;-59
2024/01/17 12:01:10;;;;;;;12.35;8.73;;;;;;;;;;5102799;27;20481;-60
2024/01/17 12:03:37;;;;;;;16.90;9.82;;;;;;;;;;5121656;27;20498;-60
2024/01/17 12:06:04;;;;;;;14.57;9.13;;;;;;;;;;5105293;27;20075;-60
2024/01/17 12:08:30;;;;;;;14.20;9.75;;;;;;;;;;5105118;27;20430;-60
2024/01/17 12:10:58;;;;;;;15.50;8.98;;;;;;;;;;5105057;27;20055;-59
2024/01/17 12:13:24;;;;;;;13.80;8.55;;;;;;;;;;5105808;27;20056;-57
2024/01/17 12:15:51;;;;;;;13.90;8.82;;;;;;;;;;5105350;27;20066;-58
2024/01/17 12:18:19;;;;;;;13.07;8.65;;;;;;;;;;5105175;27;20059;-58
2024/01/17 12:20:47;;;;;;;17.67;9.93;;;;;;;;;;5105054;27;20537;-59
2024/01/17 12:23:14;;;;;;;11.90;8.45;;;;;;;;;;5104777;27;20627;-58
2024/01/17 12:25:40;;;;;;;13.70;8.85;;;;;;;;;;5120044;27;20558;-59
2024/01/17 12:28:09;;;;;;;13.82;8.57;;;;;;;;;;5094294;27;20129;-60
2024/01/17 12:30:35;;;;;;;13.93;9.13;;;;;;;;;;5105912;27;20411;-59
2024/01/17 12:33:02;;;;;;;14.25;8.65;;;;;;;;;;5104144;27;20139;-59
2024/01/17 12:35:29;;;;;;;15.13;8.93;;;;;;;;;;5101625;27;20521;-59
2024/01/17 12:37:55;;;;;;;14.52;9.02;;;;;;;;;;5095835;28;20125;-58
2024/01/17 12:40:22;;;;;;;14.10;9.27;;;;;;;;;;5117869;27;20078;-60
2024/01/17 12:42:49;;;;;;;15.35;9.18;;;;;;;;;;5110224;27;20052;-57
2024/01/17 12:45:16;;;;;;;15.68;9.18;;;;;;;;;;5105116;27;20135;-59
2024/01/17 12:47:43;;;;;;;12.32;9.23;;;;;;;;;;5104441;27;20055;-57
2024/01/17 12:50:12;;;;;;;15.52;8.57;;;;;;;;;;5106153;27;20052;-58
2024/01/17 12:52:38;;;;;;;15.25;9.07;;;;;;;;;;5104076;28;20129;-60
2024/01/17 12:55:05;;;;;;;13.57;8.52;;;;;;;;;;5103544;27;20941;-59
2024/01/17 12:57:31;;;;;;;14.27;8.95;;;;;;;;;;5104077;27;20127;-57
2024/01/17 13:00:00;;;;;;;15.10;8.90;;;;;;;;;;5104121;27;20446;-60
2024/01/17 13:02:27;;;;;;;11.73;8.48;;;;;;;;;;5103938;27;20104;-60
2024/01/17 13:05:06;;;;;;;14.75;8.73;;;;;;;;;;5103801;27;20056;-59
2024/01/17 13:07:33;;;;;;;13.98;8.35;;;;;;;;;;5104449;27;20048;-56
2024/01/17 13:10:13;;;;;;;15.57;10.00;;;;;;;;;;5104135;27;20043;-59
2024/01/17 13:12:39;;;;;;;13.57;8.75;;;;;;;;;;5109573;27;20660;-59
2024/01/17 13:15:07;;;;;;;15.93;8.15;;;;;;;;;;5116562;27;20058;-60
2024/01/17 13:17:34;;;;;;;17.88;9.73;;;;;;;;;;5110413;27;20056;-59
2024/01/17 13:20:01;;;;;;;18.40;9.02;;;;;;;;;;5115506;27;20514;-60
2024/01/17 13:22:27;;;;;;;16.48;9.32;;;;;;;;;;5124794;27;20054;-59
2024/01/17 13:24:53;;;;;;;18.25;10.40;;;;;;;;;;5113923;27;20138;-58
2024/01/17 13:27:23;;;;;;;14.60;10.30;;;;;;;;;;5103901;27;20521;-59
2024/01/17 13:29:49;;;;;;;14.73;8.98;;;;;;;;;;5104237;27;20130;-59
2024/01/17 13:32:16;;;;;;;15.18;9.27;;;;;;;;;;5102433;28;20536;-58
2024/01/17 13:34:43;;;;;;;14.75;9.25;;;;;;;;;;5103681;27;20538;-59
2024/01/17 13:37:10;;;;;;;18.30;8.95;;;;;;;;;;5104353;27;20415;-60
2024/01/17 13:39:37;;;;;;;15.15;8.43;;;;;;;;;;5103685;27;20702;-59
2024/01/17 13:42:03;;;;;;;10.98;8.02;;;;;;;;;;5103651;27;20117;-60
2024/01/17 13:44:30;;;;;;;19.58;8.57;;;;;;;;;;5099019;27;20115;-58
2024/01/17 13:46:56;;;;;;;13.20;8.52;;;;;;;;;;5101203;27;20063;-61
2024/01/17 13:49:24;;;;;;;15.40;9.95;;;;;;;;;;5095896;27;20576;-59
2024/01/17 13:51:53;;;;;;;13.05;7.60;;;;;;;;;;5102773;27;20079;-60
2024/01/17 13:54:22;;;;;;;13.75;8.70;;;;;;;;;;5101273;27;20052;-60
2024/01/17 13:56:48;;;;;;;12.00;8.23;;;;;;;;;;5103278;28;20572;-61
2024/01/17 13:59:15;;;;;;;13.75;8.20;;;;;;;;;;5096555;27;20060;-59
2024/01/17 14:01:42;;;;;;;12.18;8.38;;;;;;;;;;5102486;27;20056;-60
2024/01/17 14:04:09;;;;;;;13.93;8.65;;;;;;;;;;5093029;27;20054;-60
2024/01/17 14:06:35;;;;;;;16.08;7.85;;;;;;;;;;5092868;27;20056;-60
2024/01/17 14:09:06;;;;;;;13.32;8.65;;;;;;;;;;5099057;27;20056;-59
2024/01/17 14:11:36;;;;;;;15.65;8.90;;;;;;;;;;5109122;27;20618;-56
2024/01/17 14:14:02;;;;;;;14.73;8.98;;;;;;;;;;5115631;27;20554;-60
2024/01/17 14:16:28;;;;;;;14.02;8.32;;;;;;;;;;5081993;28;20084;-60
2024/01/17 14:18:55;;;;;;;15.45;8.13;;;;;;;;;;5083267;28;20052;-58
2024/01/17 14:21:22;;;;;;;18.17;9.05;;;;;;;;;;5101967;27;20052;-60
2024/01/17 14:23:48;;;;;;;18.50;10.05;;;;;;;;;;5103018;27;20059;-58
2024/01/17 14:26:17;;;;;;;14.93;9.25;;;;;;;;;;5102187;27;20070;-59
2024/01/17 14:28:43;;;;;;;19.92;10.45;;;;;;;;;;5103253;27;20097;-59